sensor_id;sensor_type;location;lat;lon;timestamp;temperature;humidity
11264;DHT22;5689;48.798;9.070;2024-01-07T00:02:24;4.70;99.90
11264;DHT22;5689;48.798;9.070;2024-01-07T00:04:52;4.70;99.90
11264;DHT22;5689;48.798;9.070;2024-01-07T00:07:20;4.60;99.90
11264;DHT22;5689;48.798;9.070;2024-01-07T00:09:50;4.60;99.90
11264;DHT22;5689;48.798;9.070;2024-01-07T00:12:18;4.60;99.90
11264;DHT22;5689;48.798;9.070;2024-01-07T00:14:46;4.60;99.90
11264;DHT22;5689;48.798;9.070;2024-01-07T00:17:14;4.60;99.90
11264;DHT22;5689;48.798;9.070;2024-01-07T00:19:43;4.70;99.90
11264;DHT22;5689;48.798;9.070;2024-01-07T00:22:11;4.60;99.90
11264;DHT22;5689;48.798;9.070;2024-01-07T00:24:39;4.50;99.90
11264;DHT22;5689;48.798;9.070;2024-01-07T00:27:08;4.50;99.90
11264;DHT22;5689;48.798;9.070;2024-01-07T00:29:36;4.50;99.90
11264;DHT22;5689;48.798;9.070;2024-01-07T00:32:05;4.50;99.90
11264;DHT22;5689;48.798;9.070;2024-01-07T00:34:34;4.50;99.90
11264;DHT22;5689;48.798;9.070;2024-01-07T00:37:02;4.50;99.90
11264;DHT22;5689;48.798;9.070;2024-01-07T00:39:30;4.50;99.90
11264;DHT22;5689;48.798;9.070;2024-01-07T00:41:58;4.50;99.90
11264;DHT22;5689;48.798;9.070;2024-01-07T00:44:28;4.40;99.90
11264;DHT22;5689;48.798;9.070;2024-01-07T00:46:56;4.50;99.90
11264;DHT22;5689;48.798;9.070;2024-01-07T00:49:24;4.50;99.90
11264;DHT22;5689;48.798;9.070;2024-01-07T00:51:52;4.40;99.90
11264;DHT22;5689;48.798;9.070;2024-01-07T00:54:21;4.40;99.90
11264;DHT22;5689;48.798;9.070;2024-01-07T00:56:49;4.40;99.90
11264;DHT22;5689;48.798;9.070;2024-01-07T00:59:17;4.30;99.90
11264;DHT22;5689;48.798;9.070;2024-01-07T01:01:46;4.30;99.90
11264;DHT22;5689;48.798;9.070;2024-01-07T01:04:15;4.30;99.90
11264;DHT22;5689;48.798;9.070;2024-01-07T01:06:43;4.30;99.90
11264;DHT22;5689;48.798;9.070;2024-01-07T01:09:11;4.20;99.90
11264;DHT22;5689;48.798;9.070;2024-01-07T01:11:39;4.30;99.90
11264;DHT22;5689;48.798;9.070;2024-01-07T01:14:07;4.30;99.90
11264;DHT22;5689;48.798;9.070;2024-01-07T01:16:35;4.20;99.90
11264;DHT22;5689;48.798;9.070;2024-01-07T01:19:05;4.20;99.90
11264;DHT22;5689;48.798;9.070;2024-01-07T01:21:34;4.20;99.90
11264;DHT22;5689;48.798;9.070;2024-01-07T01:24:02;4.20;99.90
11264;DHT22;5689;48.798;9.070;2024-01-07T01:26:30;4.20;99.90
11264;DHT22;5689;48.798;9.070;2024-01-07T01:28:58;4.20;99.90
11264;DHT22;5689;48.798;9.070;2024-01-07T01:31:27;4.20;99.90
11264;DHT22;5689;48.798;9.070;2024-01-07T01:33:55;4.30;99.90
11264;DHT22;5689;48.798;9.070;2024-01-07T01:36:24;4.30;99.90
11264;DHT22;5689;48.798;9.070;2024-01-07T01:38:53;4.20;99.90
11264;DHT22;5689;48.798;9.070;2024-01-07T01:41:21;4.20;99.90
11264;DHT22;5689;48.798;9.070;2024-01-07T01:43:49;4.20;99.90
11264;DHT22;5689;48.798;9.070;2024-01-07T01:46:17;4.20;99.90
11264;DHT22;5689;48.798;9.070;2024-01-07T01:48:45;4.20;99.90
11264;DHT22;5689;48.798;9.070;2024-01-07T01:51:13;4.10;99.90
11264;DHT22;5689;48.798;9.070;2024-01-07T01:53:44;4.20;99.90
11264;DHT22;5689;48.798;9.070;2024-01-07T01:56:13;4.20;99.90
11264;DHT22;5689;48.798;9.070;2024-01-07T01:58:42;4.10;99.90
11264;DHT22;5689;48.798;9.070;2024-01-07T02:01:11;4.10;99.90
11264;DHT22;5689;48.798;9.070;2024-01-07T02:03:39;4.10;99.90
11264;DHT22;5689;48.798;9.070;2024-01-07T02:06:09;4.30;99.90
11264;DHT22;5689;48.798;9.070;2024-01-07T02:08:38;4.20;99.90
11264;DHT22;5689;48.798;9.070;2024-01-07T02:11:17;4.20;99.90
11264;DHT22;5689;48.798;9.070;2024-01-07T02:13:46;4.20;99.90
11264;DHT22;5689;48.798;9.070;2024-01-07T02:16:14;4.20;99.90
11264;DHT22;5689;48.798;9.070;2024-01-07T02:18:44;4.20;99.90
11264;DHT22;5689;48.798;9.070;2024-01-07T02:21:14;4.20;99.90
11264;DHT22;5689;48.798;9.070;2024-01-07T02:23:42;4.20;99.90
11264;DHT22;5689;48.798;9.070;2024-01-07T02:26:11;4.20;99.90
11264;DHT22;5689;48.798;9.070;2024-01-07T02:28:40;4.20;99.90
11264;DHT22;5689;48.798;9.070;2024-01-07T02:31:08;4.20;99.90
11264;DHT22;5689;48.798;9.070;2024-01-07T02:33:36;4.30;99.90
11264;DHT22;5689;48.798;9.070;2024-01-07T02:36:04;4.30;99.90
11264;DHT22;5689;48.798;9.070;2024-01-07T02:38:33;4.30;99.90
11264;DHT22;5689;48.798;9.070;2024-01-07T02:41:01;4.40;99.90
11264;DHT22;5689;48.798;9.070;2024-01-07T02:43:30;4.50;99.90
11264;DHT22;5689;48.798;9.070;2024-01-07T02:45:58;4.50;99.90
11264;DHT22;5689;48.798;9.070;2024-01-07T02:48:26;4.30;99.90
11264;DHT22;5689;48.798;9.070;2024-01-07T02:50:56;4.30;99.90
11264;DHT22;5689;48.798;9.070;2024-01-07T02:53:24;4.30;99.90
11264;DHT22;5689;48.798;9.070;2024-01-07T02:55:52;4.30;99.90
11264;DHT22;5689;48.798;9.070;2024-01-07T02:58:20;4.30;99.90
11264;DHT22;5689;48.798;9.070;2024-01-07T03:00:50;4.30;99.90
11264;DHT22;5689;48.798;9.070;2024-01-07T03:03:18;4.30;99.90
11264;DHT22;5689;48.798;9.070;2024-01-07T03:05:46;4.40;99.90
11264;DHT22;5689;48.798;9.070;2024-01-07T03:08:15;4.30;99.90
11264;DHT22;5689;48.798;9.070;2024-01-07T03:10:43;4.30;99.90
11264;DHT22;5689;48.798;9.070;2024-01-07T03:13:11;4.30;99.90
11264;DHT22;5689;48.798;9.070;2024-01-07T03:15:40;4.40;99.90
11264;DHT22;5689;48.798;9.070;2024-01-07T03:18:09;4.30;99.90
11264;DHT22;5689;48.798;9.070;2024-01-07T03:20:37;4.40;99.90
11264;DHT22;5689;48.798;9.070;2024-01-07T03:23:05;4.40;99.90
11264;DHT22;5689;48.798;9.070;2024-01-07T03:25:34;4.40;99.90
11264;DHT22;5689;48.798;9.070;2024-01-07T03:28:02;4.40;99.90
11264;DHT22;5689;48.798;9.070;2024-01-07T03:30:31;4.40;99.90
11264;DHT22;5689;48.798;9.070;2024-01-07T03:32:59;4.40;99.90
11264;DHT22;5689;48.798;9.070;2024-01-07T03:35:28;4.30;99.90
11264;DHT22;5689;48.798;9.070;2024-01-07T03:37:56;4.40;99.90
11264;DHT22;5689;48.798;9.070;2024-01-07T03:40:24;4.30;99.90
11264;DHT22;5689;48.798;9.070;2024-01-07T03:42:52;4.30;99.90
11264;DHT22;5689;48.798;9.070;2024-01-07T03:45:21;4.30;99.90
11264;DHT22;5689;48.798;9.070;2024-01-07T03:47:49;4.30;99.90
11264;DHT22;5689;48.798;9.070;2024-01-07T03:50:17;4.30;99.90
11264;DHT22;5689;48.798;9.070;2024-01-07T03:52:46;4.30;99.90
11264;DHT22;5689;48.798;9.070;2024-01-07T03:55:15;4.30;99.90
11264;DHT22;5689;48.798;9.070;2024-01-07T03:57:43;4.30;99.90
11264;DHT22;5689;48.798;9.070;2024-01-07T04:00:12;4.40;99.90
11264;DHT22;5689;48.798;9.070;2024-01-07T04:02:40;4.30;99.90
11264;DHT22;5689;48.798;9.070;2024-01-07T04:05:09;4.30;99.90
11264;DHT22;5689;48.798;9.070;2024-01-07T04:07:37;4.30;99.90
11264;DHT22;5689;48.798;9.070;2024-01-07T04:10:07;4.30;99.90
11264;DHT22;5689;48.798;9.070;2024-01-07T04:12:36;4.40;99.90
11264;DHT22;5689;48.798;9.070;2024-01-07T04:15:05;4.30;99.90
11264;DHT22;5689;48.798;9.070;2024-01-07T04:17:33;4.40;99.90
11264;DHT22;5689;48.798;9.070;2024-01-07T04:20:01;4.40;99.90
11264;DHT22;5689;48.798;9.070;2024-01-07T04:22:29;4.40;99.90
11264;DHT22;5689;48.798;9.070;2024-01-07T04:24:58;4.40;99.90
11264;DHT22;5689;48.798;9.070;2024-01-07T04:27:27;4.40;99.90
11264;DHT22;5689;48.798;9.070;2024-01-07T04:29:55;4.50;99.90
11264;DHT22;5689;48.798;9.070;2024-01-07T04:32:23;4.40;99.90
11264;DHT22;5689;48.798;9.070;2024-01-07T04:34:52;4.50;99.90
11264;DHT22;5689;48.798;9.070;2024-01-07T04:37:20;4.40;99.90
11264;DHT22;5689;48.798;9.070;2024-01-07T04:39:48;4.50;99.90
11264;DHT22;5689;48.798;9.070;2024-01-07T04:42:17;4.50;99.90
11264;DHT22;5689;48.798;9.070;2024-01-07T04:44:46;4.40;99.90
11264;DHT22;5689;48.798;9.070;2024-01-07T04:47:27;4.40;99.90
11264;DHT22;5689;48.798;9.070;2024-01-07T04:49:56;4.50;99.90
11264;DHT22;5689;48.798;9.070;2024-01-07T04:52:25;4.40;99.90
11264;DHT22;5689;48.798;9.070;2024-01-07T04:54:54;4.40;99.90
11264;DHT22;5689;48.798;9.070;2024-01-07T04:57:22;4.30;99.90
11264;DHT22;5689;48.798;9.070;2024-01-07T04:59:52;4.20;99.90
11264;DHT22;5689;48.798;9.070;2024-01-07T05:02:21;4.20;99.90
11264;DHT22;5689;48.798;9.070;2024-01-07T05:04:49;4.20;99.90
11264;DHT22;5689;48.798;9.070;2024-01-07T05:07:17;4.30;99.90
11264;DHT22;5689;48.798;9.070;2024-01-07T05:09:45;4.40;99.90
11264;DHT22;5689;48.798;9.070;2024-01-07T05:12:13;4.50;99.90
11264;DHT22;5689;48.798;9.070;2024-01-07T05:14:41;4.50;99.90
11264;DHT22;5689;48.798;9.070;2024-01-07T05:17:11;4.40;99.90
11264;DHT22;5689;48.798;9.070;2024-01-07T05:19:40;4.40;99.90
11264;DHT22;5689;48.798;9.070;2024-01-07T05:22:08;4.40;99.90
11264;DHT22;5689;48.798;9.070;2024-01-07T05:24:37;4.40;99.90
11264;DHT22;5689;48.798;9.070;2024-01-07T05:27:05;4.50;99.90
11264;DHT22;5689;48.798;9.070;2024-01-07T05:29:33;4.50;99.90
11264;DHT22;5689;48.798;9.070;2024-01-07T05:32:01;4.30;99.90
11264;DHT22;5689;48.798;9.070;2024-01-07T05:34:32;4.30;99.90
11264;DHT22;5689;48.798;9.070;2024-01-07T05:37:00;4.20;99.90
11264;DHT22;5689;48.798;9.070;2024-01-07T05:39:28;4.10;99.90
11264;DHT22;5689;48.798;9.070;2024-01-07T05:41:56;4.10;99.90
11264;DHT22;5689;48.798;9.070;2024-01-07T05:44:25;4.20;99.90
11264;DHT22;5689;48.798;9.070;2024-01-07T05:46:55;4.20;99.90
11264;DHT22;5689;48.798;9.070;2024-01-07T05:49:23;4.00;99.90
11264;DHT22;5689;48.798;9.070;2024-01-07T05:51:53;4.00;99.90
11264;DHT22;5689;48.798;9.070;2024-01-07T05:54:21;4.00;99.90
11264;DHT22;5689;48.798;9.070;2024-01-07T05:56:50;4.00;99.90
11264;DHT22;5689;48.798;9.070;2024-01-07T05:59:18;4.00;99.90
11264;DHT22;5689;48.798;9.070;2024-01-07T06:01:46;4.00;99.90
11264;DHT22;5689;48.798;9.070;2024-01-07T06:04:14;4.00;99.90
11264;DHT22;5689;48.798;9.070;2024-01-07T06:06:42;4.00;99.90
11264;DHT22;5689;48.798;9.070;2024-01-07T06:09:11;4.00;99.90
11264;DHT22;5689;48.798;9.070;2024-01-07T06:11:40;4.00;99.90
11264;DHT22;5689;48.798;9.070;2024-01-07T06:14:08;4.00;99.90
11264;DHT22;5689;48.798;9.070;2024-01-07T06:16:36;3.90;99.90
11264;DHT22;5689;48.798;9.070;2024-01-07T06:19:04;3.90;99.90
11264;DHT22;5689;48.798;9.070;2024-01-07T06:21:33;3.90;99.90
11264;DHT22;5689;48.798;9.070;2024-01-07T06:24:01;3.90;99.90
11264;DHT22;5689;48.798;9.070;2024-01-07T06:26:31;3.90;99.90
11264;DHT22;5689;48.798;9.070;2024-01-07T06:28:59;3.90;99.90
11264;DHT22;5689;48.798;9.070;2024-01-07T06:31:27;3.90;99.90
11264;DHT22;5689;48.798;9.070;2024-01-07T06:33:56;3.90;99.90
11264;DHT22;5689;48.798;9.070;2024-01-07T06:36:25;3.90;99.90
11264;DHT22;5689;48.798;9.070;2024-01-07T06:38:53;3.90;99.90
11264;DHT22;5689;48.798;9.070;2024-01-07T06:41:21;3.90;99.90
11264;DHT22;5689;48.798;9.070;2024-01-07T06:43:50;4.00;99.90
11264;DHT22;5689;48.798;9.070;2024-01-07T06:46:20;4.10;99.90
11264;DHT22;5689;48.798;9.070;2024-01-07T06:48:49;4.20;99.90
11264;DHT22;5689;48.798;9.070;2024-01-07T06:51:18;4.20;99.90
11264;DHT22;5689;48.798;9.070;2024-01-07T06:53:46;4.20;99.90
11264;DHT22;5689;48.798;9.070;2024-01-07T06:56:14;4.00;99.90
11264;DHT22;5689;48.798;9.070;2024-01-07T06:58:42;4.00;99.90
11264;DHT22;5689;48.798;9.070;2024-01-07T07:01:12;4.00;99.90
11264;DHT22;5689;48.798;9.070;2024-01-07T07:03:40;4.00;99.90
11264;DHT22;5689;48.798;9.070;2024-01-07T07:06:09;3.90;99.90
11264;DHT22;5689;48.798;9.070;2024-01-07T07:08:39;3.90;99.90
11264;DHT22;5689;48.798;9.070;2024-01-07T07:11:07;4.00;99.90
11264;DHT22;5689;48.798;9.070;2024-01-07T07:13:36;3.80;99.90
11264;DHT22;5689;48.798;9.070;2024-01-07T07:16:06;3.80;99.90
11264;DHT22;5689;48.798;9.070;2024-01-07T07:18:35;3.90;99.90
11264;DHT22;5689;48.798;9.070;2024-01-07T07:21:04;3.80;99.90
11264;DHT22;5689;48.798;9.070;2024-01-07T07:23:32;4.00;99.90
11264;DHT22;5689;48.798;9.070;2024-01-07T07:26:00;3.90;99.90
11264;DHT22;5689;48.798;9.070;2024-01-07T07:28:28;3.80;99.90
11264;DHT22;5689;48.798;9.070;2024-01-07T07:30:56;3.90;99.90
11264;DHT22;5689;48.798;9.070;2024-01-07T07:33:24;3.90;99.90
11264;DHT22;5689;48.798;9.070;2024-01-07T07:35:54;3.90;99.90
11264;DHT22;5689;48.798;9.070;2024-01-07T07:38:22;3.90;99.90
11264;DHT22;5689;48.798;9.070;2024-01-07T07:40:50;3.80;99.90
11264;DHT22;5689;48.798;9.070;2024-01-07T07:43:19;3.70;99.90
11264;DHT22;5689;48.798;9.070;2024-01-07T07:45:48;3.60;99.90
11264;DHT22;5689;48.798;9.070;2024-01-07T07:48:16;3.60;99.90
11264;DHT22;5689;48.798;9.070;2024-01-07T07:50:44;3.70;99.90
11264;DHT22;5689;48.798;9.070;2024-01-07T07:53:14;3.80;99.90
11264;DHT22;5689;48.798;9.070;2024-01-07T07:55:42;3.80;99.90
11264;DHT22;5689;48.798;9.070;2024-01-07T07:58:11;3.70;99.90
11264;DHT22;5689;48.798;9.070;2024-01-07T08:00:39;3.70;99.90
11264;DHT22;5689;48.798;9.070;2024-01-07T08:03:07;3.80;99.90
11264;DHT22;5689;48.798;9.070;2024-01-07T08:05:36;3.70;99.90
11264;DHT22;5689;48.798;9.070;2024-01-07T08:08:04;3.70;99.90
11264;DHT22;5689;48.798;9.070;2024-01-07T08:10:34;3.70;99.90
11264;DHT22;5689;48.798;9.070;2024-01-07T08:13:03;3.80;99.90
11264;DHT22;5689;48.798;9.070;2024-01-07T08:15:31;3.80;99.90
11264;DHT22;5689;48.798;9.070;2024-01-07T08:17:59;3.80;99.90
11264;DHT22;5689;48.798;9.070;2024-01-07T08:20:30;3.80;99.90
11264;DHT22;5689;48.798;9.070;2024-01-07T08:22:58;3.80;99.90
11264;DHT22;5689;48.798;9.070;2024-01-07T08:25:27;3.70;99.90
11264;DHT22;5689;48.798;9.070;2024-01-07T08:27:56;3.70;99.90
11264;DHT22;5689;48.798;9.070;2024-01-07T08:30:24;3.70;99.90
11264;DHT22;5689;48.798;9.070;2024-01-07T08:32:53;3.80;99.90
11264;DHT22;5689;48.798;9.070;2024-01-07T08:35:21;3.70;99.90
11264;DHT22;5689;48.798;9.070;2024-01-07T08:37:50;3.80;99.90
11264;DHT22;5689;48.798;9.070;2024-01-07T08:40:18;3.80;99.90
11264;DHT22;5689;48.798;9.070;2024-01-07T08:42:46;3.80;99.90
11264;DHT22;5689;48.798;9.070;2024-01-07T08:45:16;3.80;99.90
11264;DHT22;5689;48.798;9.070;2024-01-07T08:47:45;3.90;99.90
11264;DHT22;5689;48.798;9.070;2024-01-07T08:50:14;3.90;99.90
11264;DHT22;5689;48.798;9.070;2024-01-07T08:52:42;3.80;99.90
11264;DHT22;5689;48.798;9.070;2024-01-07T08:55:10;3.70;99.90
11264;DHT22;5689;48.798;9.070;2024-01-07T08:57:38;3.80;99.90
11264;DHT22;5689;48.798;9.070;2024-01-07T09:00:07;3.70;99.90
11264;DHT22;5689;48.798;9.070;2024-01-07T09:02:36;3.80;99.90
11264;DHT22;5689;48.798;9.070;2024-01-07T09:05:07;3.70;99.90
11264;DHT22;5689;48.798;9.070;2024-01-07T09:07:36;3.60;99.90
11264;DHT22;5689;48.798;9.070;2024-01-07T09:10:05;3.60;99.90
11264;DHT22;5689;48.798;9.070;2024-01-07T09:12:37;3.80;99.90
11264;DHT22;5689;48.798;9.070;2024-01-07T09:15:07;4.00;99.90
11264;DHT22;5689;48.798;9.070;2024-01-07T09:17:37;4.10;99.90
11264;DHT22;5689;48.798;9.070;2024-01-07T09:20:07;4.10;99.90
11264;DHT22;5689;48.798;9.070;2024-01-07T09:22:36;4.10;99.90
11264;DHT22;5689;48.798;9.070;2024-01-07T09:25:05;4.00;99.90
11264;DHT22;5689;48.798;9.070;2024-01-07T09:27:34;4.00;99.90
11264;DHT22;5689;48.798;9.070;2024-01-07T09:30:02;4.00;99.90
11264;DHT22;5689;48.798;9.070;2024-01-07T09:32:32;4.10;99.90
11264;DHT22;5689;48.798;9.070;2024-01-07T09:35:04;3.70;99.90
11264;DHT22;5689;48.798;9.070;2024-01-07T09:37:33;3.80;99.90
11264;DHT22;5689;48.798;9.070;2024-01-07T09:40:02;3.70;99.90
11264;DHT22;5689;48.798;9.070;2024-01-07T09:42:32;3.70;99.90
11264;DHT22;5689;48.798;9.070;2024-01-07T09:45:02;3.60;99.90
11264;DHT22;5689;48.798;9.070;2024-01-07T09:47:31;3.50;99.90
11264;DHT22;5689;48.798;9.070;2024-01-07T09:49:59;3.60;99.90
11264;DHT22;5689;48.798;9.070;2024-01-07T09:52:29;3.70;99.90
11264;DHT22;5689;48.798;9.070;2024-01-07T09:55:00;3.70;99.90
11264;DHT22;5689;48.798;9.070;2024-01-07T09:57:30;3.80;99.90
11264;DHT22;5689;48.798;9.070;2024-01-07T09:59:59;3.90;99.90
11264;DHT22;5689;48.798;9.070;2024-01-07T10:02:37;3.80;99.90
11264;DHT22;5689;48.798;9.070;2024-01-07T10:05:08;3.70;99.90
11264;DHT22;5689;48.798;9.070;2024-01-07T10:07:37;3.90;99.90
11264;DHT22;5689;48.798;9.070;2024-01-07T10:10:13;3.70;99.90
11264;DHT22;5689;48.798;9.070;2024-01-07T10:12:44;3.70;99.90
11264;DHT22;5689;48.798;9.070;2024-01-07T10:15:12;3.70;99.90
11264;DHT22;5689;48.798;9.070;2024-01-07T10:17:41;3.80;99.90
11264;DHT22;5689;48.798;9.070;2024-01-07T10:20:10;3.80;99.90
11264;DHT22;5689;48.798;9.070;2024-01-07T10:22:46;3.60;99.90
11264;DHT22;5689;48.798;9.070;2024-01-07T10:25:15;3.70;99.90
11264;DHT22;5689;48.798;9.070;2024-01-07T10:27:43;3.70;99.90
11264;DHT22;5689;48.798;9.070;2024-01-07T10:30:12;3.70;99.90
11264;DHT22;5689;48.798;9.070;2024-01-07T10:32:42;3.50;99.90
11264;DHT22;5689;48.798;9.070;2024-01-07T10:35:13;3.70;99.90
11264;DHT22;5689;48.798;9.070;2024-01-07T10:37:44;3.90;99.90
11264;DHT22;5689;48.798;9.070;2024-01-07T10:40:12;3.60;99.90
11264;DHT22;5689;48.798;9.070;2024-01-07T10:42:43;3.50;99.90
11264;DHT22;5689;48.798;9.070;2024-01-07T10:45:12;3.40;99.90
11264;DHT22;5689;48.798;9.070;2024-01-07T10:47:45;3.40;99.90
11264;DHT22;5689;48.798;9.070;2024-01-07T10:50:16;3.60;99.90
11264;DHT22;5689;48.798;9.070;2024-01-07T10:52:49;3.30;99.90
11264;DHT22;5689;48.798;9.070;2024-01-07T10:55:18;3.60;99.90
11264;DHT22;5689;48.798;9.070;2024-01-07T10:57:48;3.50;99.90
11264;DHT22;5689;48.798;9.070;2024-01-07T11:00:17;3.30;99.90
11264;DHT22;5689;48.798;9.070;2024-01-07T11:02:55;3.40;99.90
11264;DHT22;5689;48.798;9.070;2024-01-07T11:05:29;3.50;99.90
11264;DHT22;5689;48.798;9.070;2024-01-07T11:08:06;3.20;99.90
11264;DHT22;5689;48.798;9.070;2024-01-07T11:10:39;3.10;99.90
11264;DHT22;5689;48.798;9.070;2024-01-07T11:13:31;3.20;99.90
11264;DHT22;5689;48.798;9.070;2024-01-07T11:16:00;3.20;99.90
11264;DHT22;5689;48.798;9.070;2024-01-07T11:18:28;3.10;99.90
11264;DHT22;5689;48.798;9.070;2024-01-07T11:21:01;3.20;99.90
11264;DHT22;5689;48.798;9.070;2024-01-07T11:23:32;3.20;99.90
11264;DHT22;5689;48.798;9.070;2024-01-07T11:26:01;3.30;99.90
11264;DHT22;5689;48.798;9.070;2024-01-07T11:28:50;3.40;99.90
11264;DHT22;5689;48.798;9.070;2024-01-07T11:31:19;3.60;99.90
11264;DHT22;5689;48.798;9.070;2024-01-07T11:33:49;3.50;99.90
11264;DHT22;5689;48.798;9.070;2024-01-07T11:36:18;3.30;99.90
11264;DHT22;5689;48.798;9.070;2024-01-07T11:38:49;3.40;99.90
11264;DHT22;5689;48.798;9.070;2024-01-07T11:41:20;3.40;99.90
11264;DHT22;5689;48.798;9.070;2024-01-07T11:43:53;3.50;99.90
11264;DHT22;5689;48.798;9.070;2024-01-07T11:46:22;3.40;99.90
11264;DHT22;5689;48.798;9.070;2024-01-07T11:48:55;3.20;99.90
11264;DHT22;5689;48.798;9.070;2024-01-07T11:51:25;3.10;99.90
11264;DHT22;5689;48.798;9.070;2024-01-07T11:53:55;3.20;99.90
11264;DHT22;5689;48.798;9.070;2024-01-07T11:56:24;3.30;99.90
11264;DHT22;5689;48.798;9.070;2024-01-07T11:58:53;3.30;99.90
11264;DHT22;5689;48.798;9.070;2024-01-07T12:01:23;3.40;99.90
11264;DHT22;5689;48.798;9.070;2024-01-07T12:03:52;3.30;99.90
11264;DHT22;5689;48.798;9.070;2024-01-07T12:06:20;3.00;99.90
11264;DHT22;5689;48.798;9.070;2024-01-07T12:08:49;2.90;99.90
11264;DHT22;5689;48.798;9.070;2024-01-07T12:11:18;2.80;99.90
11264;DHT22;5689;48.798;9.070;2024-01-07T12:13:47;2.80;99.90
11264;DHT22;5689;48.798;9.070;2024-01-07T12:16:17;2.90;99.90
11264;DHT22;5689;48.798;9.070;2024-01-07T12:18:46;2.90;99.90
11264;DHT22;5689;48.798;9.070;2024-01-07T12:21:18;3.00;99.90
11264;DHT22;5689;48.798;9.070;2024-01-07T12:23:48;2.50;99.90
11264;DHT22;5689;48.798;9.070;2024-01-07T12:26:19;2.40;99.90
11264;DHT22;5689;48.798;9.070;2024-01-07T12:28:52;2.50;99.90
11264;DHT22;5689;48.798;9.070;2024-01-07T12:31:22;2.60;99.90
11264;DHT22;5689;48.798;9.070;2024-01-07T12:33:51;2.70;99.90
11264;DHT22;5689;48.798;9.070;2024-01-07T12:36:21;2.60;99.90
11264;DHT22;5689;48.798;9.070;2024-01-07T12:38:51;2.50;99.90
11264;DHT22;5689;48.798;9.070;2024-01-07T12:41:22;2.60;99.90
11264;DHT22;5689;48.798;9.070;2024-01-07T12:43:51;2.60;99.90
11264;DHT22;5689;48.798;9.070;2024-01-07T12:46:19;2.70;99.90
11264;DHT22;5689;48.798;9.070;2024-01-07T12:48:47;2.70;99.90
11264;DHT22;5689;48.798;9.070;2024-01-07T12:51:16;2.70;99.90
11264;DHT22;5689;48.798;9.070;2024-01-07T12:53:45;2.50;99.90
11264;DHT22;5689;48.798;9.070;2024-01-07T12:56:14;2.50;99.90
11264;DHT22;5689;48.798;9.070;2024-01-07T12:58:43;2.50;99.90
11264;DHT22;5689;48.798;9.070;2024-01-07T13:01:11;2.60;99.90
11264;DHT22;5689;48.798;9.070;2024-01-07T13:03:41;2.40;99.90
11264;DHT22;5689;48.798;9.070;2024-01-07T13:06:09;2.40;99.90
11264;DHT22;5689;48.798;9.070;2024-01-07T13:08:37;2.40;99.90
11264;DHT22;5689;48.798;9.070;2024-01-07T13:11:05;2.40;99.90
11264;DHT22;5689;48.798;9.070;2024-01-07T13:13:35;2.40;99.90
11264;DHT22;5689;48.798;9.070;2024-01-07T13:16:06;2.30;99.90
11264;DHT22;5689;48.798;9.070;2024-01-07T13:18:34;2.30;99.90
11264;DHT22;5689;48.798;9.070;2024-01-07T13:21:04;2.30;99.90
11264;DHT22;5689;48.798;9.070;2024-01-07T13:23:33;2.20;99.90
11264;DHT22;5689;48.798;9.070;2024-01-07T13:26:01;2.10;99.90
11264;DHT22;5689;48.798;9.070;2024-01-07T13:28:32;2.20;99.90
11264;DHT22;5689;48.798;9.070;2024-01-07T13:31:01;2.10;99.90
11264;DHT22;5689;48.798;9.070;2024-01-07T13:33:31;2.10;99.90
11264;DHT22;5689;48.798;9.070;2024-01-07T13:35:59;2.20;99.90
11264;DHT22;5689;48.798;9.070;2024-01-07T13:38:30;2.30;99.90
11264;DHT22;5689;48.798;9.070;2024-01-07T13:40:58;2.10;99.90
11264;DHT22;5689;48.798;9.070;2024-01-07T13:43:26;2.00;99.90
11264;DHT22;5689;48.798;9.070;2024-01-07T13:45:56;2.10;99.90
11264;DHT22;5689;48.798;9.070;2024-01-07T13:48:24;1.90;99.90
11264;DHT22;5689;48.798;9.070;2024-01-07T13:50:54;1.90;99.90
11264;DHT22;5689;48.798;9.070;2024-01-07T13:53:22;1.80;99.90
11264;DHT22;5689;48.798;9.070;2024-01-07T13:55:50;1.80;99.90
11264;DHT22;5689;48.798;9.070;2024-01-07T13:58:18;1.90;99.90
11264;DHT22;5689;48.798;9.070;2024-01-07T14:00:48;2.00;99.90
11264;DHT22;5689;48.798;9.070;2024-01-07T14:03:17;1.80;99.90
11264;DHT22;5689;48.798;9.070;2024-01-07T14:05:45;1.90;99.90
11264;DHT22;5689;48.798;9.070;2024-01-07T14:08:15;1.90;99.90
11264;DHT22;5689;48.798;9.070;2024-01-07T14:10:43;1.70;99.90
11264;DHT22;5689;48.798;9.070;2024-01-07T14:13:11;1.60;99.90
11264;DHT22;5689;48.798;9.070;2024-01-07T14:15:39;1.70;99.90
11264;DHT22;5689;48.798;9.070;2024-01-07T14:18:07;1.70;99.90
11264;DHT22;5689;48.798;9.070;2024-01-07T14:20:37;1.70;99.90
11264;DHT22;5689;48.798;9.070;2024-01-07T14:23:05;1.60;99.90
11264;DHT22;5689;48.798;9.070;2024-01-07T14:25:34;1.80;99.90
11264;DHT22;5689;48.798;9.070;2024-01-07T14:28:03;1.80;99.90
11264;DHT22;5689;48.798;9.070;2024-01-07T14:30:31;1.80;99.90
11264;DHT22;5689;48.798;9.070;2024-01-07T14:33:00;1.70;99.90
11264;DHT22;5689;48.798;9.070;2024-01-07T14:35:28;1.60;99.90
11264;DHT22;5689;48.798;9.070;2024-01-07T14:37:58;1.70;99.90
11264;DHT22;5689;48.798;9.070;2024-01-07T14:40:26;1.60;99.90
11264;DHT22;5689;48.798;9.070;2024-01-07T14:42:56;1.70;99.90
11264;DHT22;5689;48.798;9.070;2024-01-07T14:45:25;1.60;99.90
11264;DHT22;5689;48.798;9.070;2024-01-07T14:47:54;1.50;99.90
11264;DHT22;5689;48.798;9.070;2024-01-07T14:50:22;1.50;99.90
11264;DHT22;5689;48.798;9.070;2024-01-07T14:52:52;1.40;99.90
11264;DHT22;5689;48.798;9.070;2024-01-07T14:55:20;1.50;99.90
11264;DHT22;5689;48.798;9.070;2024-01-07T14:57:48;1.60;99.90
11264;DHT22;5689;48.798;9.070;2024-01-07T15:00:18;1.30;99.90
11264;DHT22;5689;48.798;9.070;2024-01-07T15:02:47;1.40;99.90
11264;DHT22;5689;48.798;9.070;2024-01-07T15:05:15;1.40;99.90
11264;DHT22;5689;48.798;9.070;2024-01-07T15:07:43;1.40;99.90
11264;DHT22;5689;48.798;9.070;2024-01-07T15:10:15;1.40;99.90
11264;DHT22;5689;48.798;9.070;2024-01-07T15:12:45;1.20;99.90
11264;DHT22;5689;48.798;9.070;2024-01-07T15:15:18;1.20;99.90
11264;DHT22;5689;48.798;9.070;2024-01-07T15:17:49;1.20;99.90
11264;DHT22;5689;48.798;9.070;2024-01-07T15:20:17;1.10;99.90
11264;DHT22;5689;48.798;9.070;2024-01-07T15:22:45;1.30;99.90
11264;DHT22;5689;48.798;9.070;2024-01-07T15:25:16;1.20;99.90
11264;DHT22;5689;48.798;9.070;2024-01-07T15:27:44;1.10;99.90
11264;DHT22;5689;48.798;9.070;2024-01-07T15:30:13;1.20;99.90
11264;DHT22;5689;48.798;9.070;2024-01-07T15:32:43;1.00;99.90
11264;DHT22;5689;48.798;9.070;2024-01-07T15:35:12;1.00;99.90
11264;DHT22;5689;48.798;9.070;2024-01-07T15:37:40;1.10;99.90
11264;DHT22;5689;48.798;9.070;2024-01-07T15:40:09;1.20;99.90
11264;DHT22;5689;48.798;9.070;2024-01-07T15:42:38;1.30;99.90
11264;DHT22;5689;48.798;9.070;2024-01-07T15:45:07;1.00;99.90
11264;DHT22;5689;48.798;9.070;2024-01-07T15:47:36;0.90;99.90
11264;DHT22;5689;48.798;9.070;2024-01-07T15:50:06;1.10;99.90
11264;DHT22;5689;48.798;9.070;2024-01-07T15:52:34;1.10;99.90
11264;DHT22;5689;48.798;9.070;2024-01-07T15:55:02;1.10;99.90
11264;DHT22;5689;48.798;9.070;2024-01-07T15:57:30;1.10;99.90
11264;DHT22;5689;48.798;9.070;2024-01-07T15:59:59;1.10;99.90
11264;DHT22;5689;48.798;9.070;2024-01-07T16:02:27;0.60;99.90
11264;DHT22;5689;48.798;9.070;2024-01-07T16:04:55;0.60;99.90
11264;DHT22;5689;48.798;9.070;2024-01-07T16:07:24;0.70;99.90
11264;DHT22;5689;48.798;9.070;2024-01-07T16:09:53;0.60;99.90
11264;DHT22;5689;48.798;9.070;2024-01-07T16:12:21;0.70;99.90
11264;DHT22;5689;48.798;9.070;2024-01-07T16:14:49;0.60;99.90